Aérodrome :
LOGIN :

S'inscrire | Disclaimer

   EN    FR    IT 

 










Légende :    VFR   VFR Marginal   IFR   IFR Intensif   IFR Très Intensif
Visi : 
Plafond : 
>= 8 km
>= 3000ft
5 à 8 km
1000 à 3000 ft
1500m à 5 km
500 à 1000 ft
800 à 1500m
200 à 500 ft
< 800m
< 200 ft
Symboles :   Orages  Brouillard  Fortes neiges  Fortes précipitations  Vent > 20 kt
SIGMETs :   Divers  Orages  Givrage  Turbulence  Onde Orograph.  Cendres Volcan.






- Altitude de l'aérodrome : 26 ft
- Code IATA : GLA


EGPF - Glasgow

DERNIER METAR :
  • 021020Z AUTO 29015KT 9999 SCT024 BKN030 08/03 Q1009

METARs EXPIRÉS :
  • 020950Z AUTO 27017G27KT 240V300 9999 BKN027 08/03 Q1009
  • 020920Z AUTO 26016G28KT 230V290 9999 OVC025 08/04 Q1009
  • 020850Z AUTO 26013KT 9999 OVC024 08/04 Q1009
  • 020820Z AUTO 26010KT 9999 OVC029 08/04 Q1009
  • 020750Z AUTO 24017KT 9999 BKN029 OVC035 08/04 Q1009

TAF TAF EGPF
Valide du 02 à 06h jusqu'au 03 à 06h UTC


020455Z 0206/0306 25015KT 9999 SCT025
TEMPO 0206/0218 28020G30KT
PROB30
TEMPO 0206/0212 6000 SHRA BKN014
PROB30
TEMPO 0212/0306 4000 SHSN BKN010
ATIS : +44 141 887 7449



MET'MAP, la Météo Aéronautique d'un coup d'oeil ! - Copyright ORBIFLY Décembre 2007 - Disclaimer

ORBIFLY MET'MAP TEAM :

Programmation & Développement : Alexandra Zaïnal
Sur une idée originale de : Baudouin d'Aumeries
Assistance à la programmation : Marc-Olivier Méhu
Soutien technique & logistique : Manuel Goepfert

Contact : metmap@orbifly.com




SOURCES & CREDITS :

   NOAA